createdAt,value
2022-11-08T00:01:21.072Z,100382.53
2022-11-08T00:03:27.411Z,100381.52
2022-11-08T00:05:32.814Z,100383.72
2022-11-08T00:07:38.194Z,100385.71
2022-11-08T00:09:44.727Z,100386.78
2022-11-08T00:11:50.186Z,100385.47
2022-11-08T00:13:55.276Z,100386.18
2022-11-08T00:16:00.763Z,100387.72
2022-11-08T00:18:06.118Z,100385.73
2022-11-08T00:20:26.175Z,100386.74
2022-11-08T00:22:31.498Z,100385.78
2022-11-08T00:24:36.797Z,100387.03
2022-11-08T00:26:43.724Z,100386.84
2022-11-08T00:28:51.173Z,100389.08
2022-11-08T00:30:58.538Z,100389.72
2022-11-08T00:33:03.879Z,100389.16
2022-11-08T00:35:09.247Z,100391.65
2022-11-08T00:37:14.649Z,100392.71
2022-11-08T00:39:23.413Z,100394.59
2022-11-08T00:41:28.654Z,100394.59
2022-11-08T00:43:34.033Z,100396.83
2022-11-08T00:45:39.564Z,100390.55
2022-11-08T00:47:45.014Z,100389.68
2022-11-08T00:49:50.446Z,100389.23
2022-11-08T00:52:00.407Z,100384.44
2022-11-08T00:54:05.732Z,100385.47
2022-11-08T00:56:11.016Z,100381.92
2022-11-08T00:58:16.932Z,100380.44
2022-11-08T01:00:30.960Z,100382.42
2022-11-08T01:02:36.453Z,100384.16
2022-11-08T01:04:43.973Z,100385.42
2022-11-08T01:06:49.276Z,100384.84
2022-11-08T01:08:56.598Z,100382.02
2022-11-08T01:11:02.081Z,100377.56
2022-11-08T01:13:07.803Z,100375.52
2022-11-08T01:15:13.071Z,100377.31
2022-11-08T01:17:19.738Z,100378.24
2022-11-08T01:19:25.204Z,100379.84
2022-11-08T01:21:31.480Z,100374.25
2022-11-08T01:23:37.014Z,100377.9
2022-11-08T01:25:43.414Z,100374.6
2022-11-08T01:27:48.853Z,100375.34
2022-11-08T01:29:56.348Z,100368.94
2022-11-08T01:32:01.845Z,100375.78
2022-11-08T01:34:07.293Z,100369.59
2022-11-08T01:36:12.697Z,100364.66
2022-11-08T01:38:19.007Z,100360.7
2022-11-08T01:40:25.200Z,100361.44
2022-11-08T01:42:30.607Z,100362.16
2022-11-08T01:44:36.054Z,100365.13
2022-11-08T01:46:41.400Z,100360.02
2022-11-08T01:48:46.639Z,100361.89
2022-11-08T01:50:54.021Z,100362.84
2022-11-08T01:52:59.368Z,100363
2022-11-08T01:55:05.673Z,100368.05
2022-11-08T01:57:11.526Z,100367.39
2022-11-08T01:59:16.960Z,100368.3
2022-11-08T02:01:23.537Z,100367.36
2022-11-08T02:03:32.587Z,100369.55
2022-11-08T02:05:37.988Z,100372.77
2022-11-08T02:07:43.334Z,100378.56
2022-11-08T02:09:48.693Z,100377.72
2022-11-08T02:11:54.019Z,100373.77
2022-11-08T02:13:59.462Z,100372.31
2022-11-08T02:16:04.806Z,100372.38
2022-11-08T02:18:10.127Z,100372.6
2022-11-08T02:20:15.551Z,100374.92
2022-11-08T02:22:21.015Z,100376.33
2022-11-08T02:24:26.282Z,100374.13
2022-11-08T02:26:31.710Z,100370.86
2022-11-08T02:28:37.171Z,100369.48
2022-11-08T02:30:42.534Z,100367.73
2022-11-08T02:32:52.635Z,100369.45
2022-11-08T02:35:00.059Z,100369.06
2022-11-08T02:37:05.388Z,100368.03
2022-11-08T02:39:10.730Z,100364.55
2022-11-08T02:41:16.230Z,100360.03
2022-11-08T02:43:22.524Z,100357.52
2022-11-08T02:45:27.883Z,100355.57
2022-11-08T02:47:33.349Z,100352.11
2022-11-08T02:49:39.701Z,100354.13
2022-11-08T02:51:45.145Z,100353.39
2022-11-08T02:53:50.535Z,100350.83
2022-11-08T02:55:55.835Z,100352.32
2022-11-08T02:58:01.274Z,100354.78
2022-11-08T03:00:07.995Z,100355.55
2022-11-08T03:02:14.651Z,100362.08
2022-11-08T03:04:20.626Z,100364.59
2022-11-08T03:06:25.963Z,100366.64
2022-11-08T03:08:31.568Z,100370.92
2022-11-08T03:10:37.003Z,100372.73
2022-11-08T03:12:42.361Z,100376.67
2022-11-08T03:14:47.925Z,100371.49
2022-11-08T03:16:53.326Z,100367.03
2022-11-08T03:19:00.671Z,100368.98
2022-11-08T03:21:06.220Z,100366.52
2022-11-08T03:23:11.553Z,100368.75
2022-11-08T03:25:16.971Z,100364.45
2022-11-08T03:27:22.399Z,100368.11
2022-11-08T03:29:27.871Z,100367.84
2022-11-08T03:31:33.284Z,100370.98
2022-11-08T03:33:38.622Z,100369.84
2022-11-08T03:35:44.093Z,100367.89
2022-11-08T03:37:49.469Z,100372.72
2022-11-08T03:39:56.838Z,100374.46
2022-11-08T03:42:05.281Z,100382.96
2022-11-08T03:44:11.614Z,100379.33
2022-11-08T03:46:16.963Z,100385.97
2022-11-08T03:48:24.316Z,100384.56
2022-11-08T03:50:29.750Z,100384.84
2022-11-08T03:52:39.693Z,100381.14
2022-11-08T03:54:44.928Z,100381.7
2022-11-08T03:56:50.234Z,100383.14
2022-11-08T03:58:55.664Z,100379.08
2022-11-08T04:01:01.099Z,100380.16
2022-11-08T04:03:06.734Z,100377.67
2022-11-08T04:05:15.805Z,100378.31
2022-11-08T04:07:21.605Z,100380.96
2022-11-08T04:09:27.028Z,100381.09
2022-11-08T04:11:32.336Z,100377.33
2022-11-08T04:13:37.773Z,100378.33
2022-11-08T04:15:43.042Z,100383.09
2022-11-08T04:17:48.338Z,100384.16
2022-11-08T04:19:53.696Z,100383.54
2022-11-08T04:22:01.154Z,100386.03
2022-11-08T04:24:21.123Z,100384.02
2022-11-08T04:26:26.634Z,100382.73
2022-11-08T04:28:32.040Z,100384.27
2022-11-08T04:30:37.369Z,100379.85
2022-11-08T04:32:43.087Z,100380.67
2022-11-08T04:34:48.337Z,100381.41
2022-11-08T05:15:19.234Z,100365.52
2022-11-08T05:21:21.714Z,100368.3
2022-11-08T05:23:27.070Z,100379.33
2022-11-08T05:25:34.386Z,100383.33
2022-11-08T05:27:39.837Z,100385.9
2022-11-08T05:29:45.590Z,100386.64
2022-11-08T05:31:51.445Z,100385.03
2022-11-08T05:34:02.095Z,100387.9
2022-11-08T05:36:09.332Z,100385.3
2022-11-08T05:38:15.680Z,100387.38
2022-11-08T05:40:23.120Z,100388.55
2022-11-08T05:42:39.771Z,100386.89
2022-11-08T05:44:45.651Z,100389.05
2022-11-08T05:46:53.007Z,100394.17
2022-11-08T05:48:59.419Z,100393.2
2022-11-08T05:51:05.340Z,100395.08
2022-11-08T05:53:12.465Z,100393.32
2022-11-08T05:55:21.986Z,100396.2
2022-11-08T05:57:29.011Z,100395.19
2022-11-08T05:59:36.830Z,100396.69
2022-11-08T06:01:42.376Z,100396.84
2022-11-08T06:03:49.397Z,100401.72
2022-11-08T06:05:55.190Z,100404.47
2022-11-08T06:08:00.749Z,100404.26
2022-11-08T06:10:06.605Z,100404.16
2022-11-08T06:12:13.402Z,100411.03
2022-11-08T06:14:19.139Z,100413.45
2022-11-08T06:16:26.621Z,100414.89
2022-11-08T06:18:33.291Z,100420.86
2022-11-08T06:20:39.932Z,100419.27
2022-11-08T06:22:45.673Z,100422.44
2022-11-08T06:24:51.129Z,100422.13
2022-11-08T06:26:56.736Z,100424.92
2022-11-08T06:29:24.456Z,100423.18
2022-11-08T06:41:57.061Z,100434.48
2022-11-08T06:44:03.302Z,100434.52
2022-11-08T06:46:15.085Z,100434.95
2022-11-08T06:48:20.833Z,100439.31
2022-11-08T06:50:28.632Z,100437.56
2022-11-08T06:52:34.451Z,100435.44
2022-11-08T06:54:39.910Z,100439.19
2022-11-08T06:56:47.378Z,100442.83
2022-11-08T06:58:53.494Z,100441.43
2022-11-08T07:01:00.614Z,100437.35
2022-11-08T07:03:06.912Z,100435.56
2022-11-08T07:05:14.216Z,100431.91
2022-11-08T07:07:20.360Z,100434.13
2022-11-08T07:09:27.720Z,100432.14
2022-11-08T07:11:34.486Z,100435.13
2022-11-08T07:13:40.036Z,100440.13
2022-11-08T07:15:45.206Z,100439.11
2022-11-08T07:17:50.803Z,100432.63
2022-11-08T07:25:42.181Z,100433.91
2022-11-08T07:30:47.850Z,100436.6
2022-11-08T07:36:49.204Z,100446.75
2022-11-08T07:42:23.058Z,100447.27
2022-11-08T07:45:00.861Z,100445.66
2022-11-08T07:47:07.328Z,100442.8
2022-11-08T07:49:33.367Z,100441.93
2022-11-08T07:51:44.677Z,100442.53
2022-11-08T07:54:16.604Z,100438.67
2022-11-08T08:02:20.906Z,100428.31
2022-11-08T08:04:29.804Z,100429.31
2022-11-08T08:06:59.616Z,100428.38
2022-11-08T08:09:21.746Z,100425.47
2022-11-08T08:11:40.286Z,100427.03
2022-11-08T08:13:47.006Z,100424.02
2022-11-08T08:15:52.522Z,100423.86
2022-11-08T08:17:57.989Z,100421.45
2022-11-08T08:20:03.524Z,100425.77
2022-11-08T08:22:08.991Z,100425.84
2022-11-08T08:24:14.440Z,100426.49
2022-11-08T08:26:19.803Z,100427.23
2022-11-08T08:28:26.390Z,100420.17
2022-11-08T08:30:32.190Z,100420.48
2022-11-08T08:32:38.127Z,100412.16
2022-11-08T08:34:43.965Z,100416.69
2022-11-08T08:36:51.643Z,100416.9
2022-11-08T08:38:58.032Z,100416.8
2022-11-08T08:41:03.623Z,100415.06
2022-11-08T08:43:09.504Z,100419.84
2022-11-08T08:45:16.604Z,100419.59
2022-11-08T08:47:22.097Z,100416.64
2022-11-08T08:49:27.643Z,100414.99
2022-11-08T08:51:36.701Z,100416.8
2022-11-08T08:53:43.176Z,100417.02
2022-11-08T08:55:49.668Z,100412.02
2022-11-08T08:57:56.296Z,100420.14
2022-11-08T09:03:40.695Z,100420.71
2022-11-08T09:05:48.372Z,100421.8
2022-11-08T09:07:56.187Z,100426.21
2022-11-08T09:10:01.628Z,100423.83
2022-11-08T09:12:14.555Z,100421.95
2022-11-08T09:14:21.279Z,100415.56
2022-11-08T09:16:29.647Z,100417.39
2022-11-08T09:39:36.170Z,100425.91
2022-11-08T09:48:37.835Z,100432.06
2022-11-08T09:50:43.279Z,100430.27
2022-11-08T09:52:52.847Z,100427.02
2022-11-08T09:55:01.900Z,100427.39
2022-11-08T09:57:12.943Z,100428.02
2022-11-08T09:59:20.538Z,100424.05
2022-11-08T10:01:30.002Z,100427.86
2022-11-08T10:03:35.788Z,100424.59
2022-11-08T10:05:46.901Z,100428.85
2022-11-08T10:07:53.016Z,100434.58
2022-11-08T10:09:58.568Z,100430.09
2022-11-08T10:12:04.812Z,100429.77
2022-11-08T10:14:10.558Z,100424.14
2022-11-08T10:16:16.982Z,100421.45
2022-11-08T10:18:23.511Z,100424.16
2022-11-08T10:20:30.604Z,100423.04
2022-11-08T10:22:36.243Z,100418.26
2022-11-08T10:24:43.765Z,100419.27
2022-11-08T10:26:52.957Z,100418.88
2022-11-08T10:28:59.568Z,100416.59
2022-11-08T10:31:05.453Z,100411.64
2022-11-08T10:33:11.572Z,100415.23
2022-11-08T10:35:21.305Z,100413.33
2022-11-08T10:37:31.108Z,100406.34
2022-11-08T10:39:57.569Z,100402.95
2022-11-08T10:42:03.406Z,100409.13
2022-11-08T10:44:10.354Z,100401.5
2022-11-08T10:46:16.909Z,100399.03
2022-11-08T10:48:22.736Z,100399.2
2022-11-08T10:50:49.502Z,100394.44
2022-11-08T10:52:56.001Z,100392.35
2022-11-08T10:55:01.492Z,100394.2
2022-11-08T10:57:07.263Z,100388.66
2022-11-08T10:59:33.496Z,100384.33
2022-11-08T11:01:45.738Z,100381.28
2022-11-08T11:03:51.705Z,100385.42
2022-11-08T11:05:57.450Z,100384.14
2022-11-08T11:08:07.076Z,100379.13
2022-11-08T11:10:12.385Z,100374.92
2022-11-08T11:12:18.050Z,100374.05
2022-11-08T11:14:24.802Z,100375.27
2022-11-08T11:16:30.906Z,100377.81
2022-11-08T11:18:36.428Z,100374.22
2022-11-08T11:20:41.990Z,100373.84
2022-11-08T11:22:47.505Z,100366.37
2022-11-08T11:24:53.148Z,100361.77
2022-11-08T11:27:04.729Z,100361.11
2022-11-08T11:29:10.060Z,100356.2
2022-11-08T11:31:15.474Z,100359.74
2022-11-08T11:33:21.087Z,100363.48
2022-11-08T11:35:26.815Z,100359.33
2022-11-08T11:37:34.334Z,100361.3
2022-11-08T11:40:03.928Z,100360.02
2022-11-08T11:42:45.529Z,100353.95
2022-11-08T11:44:52.185Z,100356.09
2022-11-08T11:46:57.813Z,100361.63
2022-11-08T11:49:03.405Z,100364.3
2022-11-08T11:51:10.299Z,100363.7
2022-11-08T11:53:19.937Z,100365.27
2022-11-08T11:55:26.330Z,100368.42
2022-11-08T11:57:31.992Z,100367.05
2022-11-08T11:59:41.040Z,100367.98
2022-11-08T12:01:46.666Z,100364.94
2022-11-08T12:03:53.656Z,100366.03
2022-11-08T12:05:59.977Z,100364.48
2022-11-08T12:08:07.691Z,100361.77
2022-11-08T12:10:14.081Z,100360.66
2022-11-08T12:12:19.781Z,100360.39
2022-11-08T12:14:27.069Z,100356.48
2022-11-08T12:16:32.914Z,100355.69
2022-11-08T12:18:45.419Z,100350.03
2022-11-08T12:20:53.151Z,100348.47
2022-11-08T12:22:59.482Z,100353.84
2022-11-08T12:25:04.966Z,100348.34
2022-11-08T12:27:14.134Z,100347.72
2022-11-08T12:29:19.742Z,100347.8
2022-11-08T12:31:25.076Z,100350.6
2022-11-08T12:33:30.774Z,100348.55
2022-11-08T12:35:36.389Z,100349.36
2022-11-08T12:37:41.917Z,100347.45
2022-11-08T12:39:47.738Z,100340.88
2022-11-08T12:41:52.986Z,100339.97
2022-11-08T12:43:58.742Z,100331.83
2022-11-08T12:46:04.147Z,100329.92
2022-11-08T12:48:10.138Z,100330.38
2022-11-08T12:50:16.192Z,100336.05
2022-11-08T12:52:21.569Z,100334.35
2022-11-08T12:54:29.231Z,100341.34
2022-11-08T12:56:36.397Z,100339.81
2022-11-08T12:58:42.143Z,100339.77
2022-11-08T13:00:48.281Z,100339.94
2022-11-08T13:02:54.012Z,100335.67
2022-11-08T13:05:00.902Z,100334.18
2022-11-08T13:07:06.673Z,100335.61
2022-11-08T13:09:13.509Z,100335.59
2022-11-08T13:11:19.522Z,100340.69
2022-11-08T13:13:25.576Z,100334.9
2022-11-08T13:15:32.081Z,100331.33
2022-11-08T13:17:37.742Z,100337.06
2022-11-08T13:19:43.425Z,100340.31
2022-11-08T13:21:49.155Z,100340.19
2022-11-08T13:23:57.464Z,100336.33
2022-11-08T13:26:09.919Z,100333.27
2022-11-08T13:28:16.171Z,100326
2022-11-08T13:30:22.904Z,100319.53
2022-11-08T13:32:28.708Z,100316.16
2022-11-08T13:34:34.315Z,100314.22
2022-11-08T13:36:40.028Z,100308.08
2022-11-08T13:38:47.925Z,100305.3
2022-11-08T13:40:57.545Z,100301.02
2022-11-08T13:43:02.775Z,100306.78
2022-11-08T13:45:12.709Z,100308.73
2022-11-08T13:47:18.206Z,100303.2
2022-11-08T13:49:24.056Z,100301.05
2022-11-08T13:51:29.727Z,100302.04
2022-11-08T13:53:35.329Z,100308.28
2022-11-08T13:55:41.186Z,100307.66
2022-11-08T13:57:47.429Z,100306.48
2022-11-08T13:59:53.557Z,100303
2022-11-08T14:02:00.818Z,100300.34
2022-11-08T14:04:06.744Z,100298.91
2022-11-08T14:06:13.693Z,100297.92
2022-11-08T14:08:19.333Z,100295.33
2022-11-08T14:10:26.676Z,100293.75
2022-11-08T14:12:32.407Z,100295.89
2022-11-08T14:14:38.850Z,100292.2
2022-11-08T14:16:46.173Z,100295.48
2022-11-08T14:18:52.865Z,100302.09
2022-11-08T14:21:00.498Z,100295.81
2022-11-08T14:23:06.400Z,100300.92
2022-11-08T14:25:12.908Z,100298.88
2022-11-08T14:27:20.449Z,100303.64
2022-11-08T14:29:25.981Z,100302.83
2022-11-08T14:31:32.333Z,100307.93
2022-11-08T14:33:37.853Z,100303.45
2022-11-08T14:35:43.460Z,100302.88
2022-11-08T14:37:49.547Z,100303.98
2022-11-08T14:39:56.266Z,100307.53
2022-11-08T14:42:03.007Z,100306.96
2022-11-08T14:44:09.637Z,100308.06
2022-11-08T14:46:15.821Z,100307.29
2022-11-08T14:48:23.231Z,100309.09
2022-11-08T14:50:29.700Z,100306.49
2022-11-08T14:52:38.775Z,100314.13
2022-11-08T14:54:44.852Z,100316.11
2022-11-08T14:56:51.434Z,100320.56
2022-11-08T14:58:57.412Z,100323.09
2022-11-08T15:01:06.261Z,100322.98
2022-11-08T15:03:15.861Z,100327.48
2022-11-08T15:05:24.908Z,100326.44
2022-11-08T15:07:34.166Z,100323.16
2022-11-08T15:09:49.767Z,100328.8
2022-11-08T15:11:55.630Z,100331.62
2022-11-08T15:14:02.124Z,100335.12
2022-11-08T15:16:10.829Z,100333.61
2022-11-08T15:18:17.871Z,100337.06
2022-11-08T15:20:24.854Z,100328.55
2022-11-08T15:22:35.378Z,100324.55
2022-11-08T15:24:44.488Z,100324.83
2022-11-08T15:26:50.552Z,100328.35
2022-11-08T15:29:08.468Z,100327.53
2022-11-08T15:31:29.145Z,100325.44
2022-11-08T15:33:35.402Z,100326.94
2022-11-08T15:35:51.734Z,100332.11
2022-11-08T15:38:00.496Z,100332.6
2022-11-08T15:40:09.005Z,100329.8
2022-11-08T15:42:31.018Z,100329.09
2022-11-08T15:44:40.125Z,100329.91
2022-11-08T15:46:53.235Z,100330.8
2022-11-08T15:49:01.277Z,100331.45
2022-11-08T15:53:29.724Z,100322.59
2022-11-08T15:55:37.641Z,100325.88
2022-11-08T15:58:04.988Z,100330.08
2022-11-08T16:00:33.620Z,100327.06
2022-11-08T16:02:43.827Z,100328.16
2022-11-08T16:05:01.522Z,100326.68
2022-11-08T16:07:08.704Z,100329.23
2022-11-08T16:09:18.774Z,100322.38
2022-11-08T16:11:29.144Z,100326.19
2022-11-08T16:13:39.274Z,100330.72
2022-11-08T16:15:46.641Z,100331.28
2022-11-08T16:17:56.466Z,100329.86
2022-11-08T16:20:20.386Z,100333.83
2022-11-08T16:22:27.811Z,100331.63
2022-11-08T16:25:16.381Z,100334.02
2022-11-08T16:28:08.722Z,100339.67
2022-11-08T16:30:47.808Z,100343.59
2022-11-08T16:33:07.047Z,100345.34
2022-11-08T16:35:24.084Z,100342.8
2022-11-08T16:37:32.397Z,100338.68
2022-11-08T16:42:52.002Z,100338.52
2022-11-08T16:45:02.450Z,100336.59
2022-11-08T16:50:23.118Z,100331.32
2022-11-08T16:53:10.120Z,100337.23
2022-11-08T17:01:10.673Z,100339.34
2022-11-08T17:03:51.597Z,100339.42
2022-11-08T17:06:14.149Z,100339.64
2022-11-08T17:08:22.636Z,100343.61
2022-11-08T17:10:37.022Z,100344.38
2022-11-08T17:12:44.211Z,100342.64
2022-11-08T17:14:58.495Z,100346.37
2022-11-08T17:17:08.584Z,100347.22
2022-11-08T17:19:17.861Z,100344.66
2022-11-08T17:21:58.053Z,100343.95
2022-11-08T17:24:06.224Z,100343.34
2022-11-08T17:26:15.322Z,100344.94
2022-11-08T17:28:25.084Z,100345.55
2022-11-08T17:30:32.192Z,100343.38
2022-11-08T17:32:45.003Z,100341.66
2022-11-08T17:34:52.669Z,100345.51
2022-11-08T17:37:02.540Z,100344.83
2022-11-08T17:39:11.831Z,100343.5
2022-11-08T17:41:27.294Z,100343.45
2022-11-08T17:43:44.199Z,100338.47
2022-11-08T17:46:00.417Z,100342.86
2022-11-08T17:48:08.706Z,100344.13
2022-11-08T17:50:18.574Z,100347.8
2022-11-08T17:52:29.291Z,100342.27
2022-11-08T17:54:39.846Z,100347.27
2022-11-08T17:57:02.091Z,100350.27
2022-11-08T17:59:12.203Z,100352.83
2022-11-08T18:01:24.155Z,100352.77
2022-11-08T18:03:35.732Z,100345.2
2022-11-08T18:05:48.169Z,100348.47
2022-11-08T18:07:58.972Z,100350.8
2022-11-08T18:10:10.890Z,100345.43
2022-11-08T18:12:22.971Z,100349.25
2022-11-08T18:14:32.239Z,100347.45
2022-11-08T18:16:41.724Z,100345.64
2022-11-08T18:18:49.770Z,100348.03
2022-11-08T18:23:25.669Z,100351.87
2022-11-08T18:25:33.918Z,100353.75
2022-11-08T18:27:59.837Z,100348.14
2022-11-08T18:30:18.039Z,100348.47
2022-11-08T18:32:32.491Z,100347.84
2022-11-08T18:34:41.918Z,100348.96
2022-11-08T18:36:57.939Z,100346.74
2022-11-08T18:39:09.380Z,100349.05
2022-11-08T18:41:26.121Z,100344.94
2022-11-08T18:43:35.472Z,100347.04
2022-11-08T18:45:49.707Z,100345.89
2022-11-08T18:48:01.324Z,100343.67
2022-11-08T18:50:16.116Z,100350.31
2022-11-08T18:52:26.542Z,100349.08
2022-11-08T18:54:45.870Z,100350.31
2022-11-08T18:57:11.385Z,100349.24
2022-11-08T18:59:26.225Z,100345.09
2022-11-08T19:01:34.908Z,100349.93
2022-11-08T19:03:46.727Z,100351.84
2022-11-08T19:05:58.084Z,100350.33
2022-11-08T19:08:13.535Z,100347.79
2022-11-08T19:10:24.721Z,100353.2
2022-11-08T19:12:41.334Z,100348.72
2022-11-08T19:14:51.374Z,100353.97
2022-11-08T19:17:05.505Z,100354.78
2022-11-08T19:19:15.167Z,100350.81
2022-11-08T19:21:44.747Z,100348.2
2022-11-08T19:24:10.297Z,100352.05
2022-11-08T19:26:21.727Z,100353.92
2022-11-08T19:28:34.680Z,100353.92
2022-11-08T19:30:50.053Z,100354.94
